Lincoln, Nebraska
Current Conditions -  °F | °C
As of 2:03 AM on Friday 19 Dec 2014 (Local Time) from KLNK Reporting Station
Haze Haze  
Wind Chill: 31°   Ceiling: 2900
Heat Index: 31°   Visibility: 6mi
Dew Point: 29°   Wind: 3mph
Humidity: 92%   Direction: 190°S
Pressure: 30.23"   Gusts: NA
Location:  40.81°N, 96.71°W
Report Text: KLNK 190803Z AUTO 19003KT 6SM BR FEW018 OVC029 M01/M02 A3023 RMK AO2 T10061017
Loading
Personal Weather Stations






























Interactive Weather Map New forecast layout! Learn more

10-Day Weather Forecast

Advertisements
Track Severe Weather on mobile